Time;durP1;ratioP1;P1;durP2;ratioP2;P2;SDS_P1;SDS_P2;PMS_P1;PMS_P2;Temp;Humidity;BMP_temperature;BMP_pressure;BME280_temperature;BME280_humidity;BME280_pressure;Samples;Min_cycle;Max_cycle;Signal;HPM_P1;HPM_P2
2021/08/16 00:01:21;;;;;;;13.03;11.00;;;;;;;22.75;52.99;100211.45;1629142;84;20968;-63
2021/08/16 00:03:47;;;;;;;13.10;11.70;;;;;;;22.71;53.17;100216.61;1665331;84;21043;-63
2021/08/16 00:06:18;;;;;;;12.95;11.65;;;;;;;22.68;53.35;100209.58;1656138;84;21510;-63
2021/08/16 00:08:46;;;;;;;13.78;11.65;;;;;;;22.66;53.33;100207.13;1665073;84;21088;-63
2021/08/16 00:11:13;;;;;;;16.52;11.20;;;;;;;22.65;53.47;100210.11;1669757;84;21042;-63
2021/08/16 00:13:40;;;;;;;15.25;11.60;;;;;;;22.62;53.63;100206.56;1661570;85;21082;-64
2021/08/16 00:16:07;;;;;;;16.10;12.03;;;;;;;22.57;53.87;100199.25;1682563;84;21185;-63
2021/08/16 00:18:34;;;;;;;13.95;12.50;;;;;;;22.52;54.05;100197.33;1670863;84;20979;-63
2021/08/16 00:21:03;;;;;;;18.48;12.98;;;;;;;22.47;54.16;100196.51;1678481;84;21058;-63
2021/08/16 00:23:29;;;;;;;19.00;12.43;;;;;;;22.42;54.43;100197.34;1675568;85;21107;-63
2021/08/16 00:25:55;;;;;;;15.00;11.75;;;;;;;22.38;54.40;100195.41;1676500;85;20955;-63
2021/08/16 00:28:23;;;;;;;17.48;12.90;;;;;;;22.34;54.50;100197.33;1676364;85;21035;-63
2021/08/16 00:30:49;;;;;;;16.27;12.37;;;;;;;22.31;54.52;100192.43;1666213;85;21036;-63
2021/08/16 00:33:16;;;;;;;15.10;12.53;;;;;;;22.30;54.66;100191.34;1662859;85;21008;-63
2021/08/16 00:35:42;;;;;;;16.15;12.53;;;;;;;22.29;54.73;100193.24;1672631;85;21601;-63
2021/08/16 00:38:10;;;;;;;15.68;12.75;;;;;;;22.30;54.96;100192.70;1665572;84;21126;-63
2021/08/16 00:40:38;;;;;;;14.10;12.63;;;;;;;22.30;54.92;100196.25;1655005;85;21041;-64
2021/08/16 00:43:06;;;;;;;19.52;13.28;;;;;;;22.32;54.66;100195.44;1660931;84;21096;-64
2021/08/16 00:45:33;;;;;;;21.35;12.13;;;;;;;22.33;54.69;100186.19;1676150;84;21651;-64
2021/08/16 00:48:00;;;;;;;16.55;12.73;;;;;;;22.31;54.59;100188.36;1679981;84;21041;-64
2021/08/16 00:50:28;;;;;;;15.23;13.72;;;;;;;22.32;54.54;100197.31;1680475;84;21469;-64
2021/08/16 00:52:57;;;;;;;14.28;12.37;;;;;;;22.31;54.52;100199.22;1683222;84;21118;-63
2021/08/16 00:55:24;;;;;;;12.80;11.63;;;;;;;22.31;54.46;100197.86;1680219;84;21192;-63
2021/08/16 00:57:50;;;;;;;16.65;13.28;;;;;;;22.30;54.53;100193.53;1682228;84;20947;-64
2021/08/16 01:00:20;;;;;;;15.90;12.98;;;;;;;22.30;54.60;100202.20;1676556;84;21190;-63
2021/08/16 01:02:48;;;;;;;13.70;12.28;;;;;;;22.29;54.80;100200.03;1666737;85;21038;-63
2021/08/16 01:05:17;;;;;;;13.55;12.07;;;;;;;22.28;54.93;100198.42;1682462;84;21025;-63
2021/08/16 01:07:46;;;;;;;15.20;11.70;;;;;;;22.24;55.11;100194.55;1684536;84;21001;-63
2021/08/16 01:10:15;;;;;;;13.28;10.98;;;;;;;22.23;55.43;100197.56;1678502;84;21139;-63
2021/08/16 01:12:42;;;;;;;15.58;12.03;;;;;;;22.20;55.45;100196.73;1675168;84;21044;-63
2021/08/16 01:15:12;;;;;;;14.75;11.78;;;;;;;22.15;55.57;100188.02;1674973;85;21126;-63
2021/08/16 01:17:40;;;;;;;15.30;12.60;;;;;;;22.12;55.57;100192.10;1681229;84;21022;-64
2021/08/16 01:20:10;;;;;;;14.65;12.37;;;;;;;22.08;55.73;100190.20;1680833;84;21030;-63
2021/08/16 01:22:38;;;;;;;16.77;13.40;;;;;;;22.05;55.86;100188.83;1679287;84;20978;-63
2021/08/16 01:25:08;;;;;;;18.75;13.30;;;;;;;22.02;55.82;100192.61;1681648;84;21023;-63
2021/08/16 01:27:37;;;;;;;14.18;12.75;;;;;;;21.99;55.86;100189.09;1676701;84;20998;-63
2021/08/16 01:30:12;;;;;;;16.73;13.32;;;;;;;21.97;55.90;100190.17;1667585;84;21468;-63
2021/08/16 01:32:40;;;;;;;15.03;13.58;;;;;;;21.96;56.00;100189.91;1662521;84;21592;-63
2021/08/16 01:35:09;;;;;;;16.97;11.63;;;;;;;21.91;56.07;100185.81;1684593;84;21548;-63
2021/08/16 01:37:35;;;;;;;16.48;12.75;;;;;;;21.86;56.22;100189.06;1683394;84;20998;-63
2021/08/16 01:40:11;;;;;;;13.53;12.20;;;;;;;21.81;56.42;100181.70;1677716;84;21037;-63
2021/08/16 01:42:37;;;;;;;15.88;12.68;;;;;;;21.78;56.51;100186.33;1681426;84;21018;-63
2021/08/16 01:45:05;;;;;;;;;;;;;;;21.80;56.56;100184.16;1681166;84;21675;-63
2021/08/16 01:47:31;;;;;;;17.23;13.15;;;;;;;21.87;56.56;100182.53;1676894;84;20186;-63
2021/08/16 01:49:58;;;;;;;15.72;12.98;;;;;;;21.88;56.63;100185.53;1682651;84;21041;-63
2021/08/16 01:52:24;;;;;;;19.50;14.07;;;;;;;21.91;56.73;100189.08;1662488;85;21057;-63
2021/08/16 01:54:50;;;;;;;;;;;;;;;21.92;56.75;100182.55;1686439;84;21012;-63
2021/08/16 01:57:16;;;;;;;16.40;13.35;;;;;;;21.94;56.60;100185.81;1648203;86;20409;-63
2021/08/16 01:59:43;;;;;;;15.60;13.32;;;;;;;21.90;56.58;100192.31;1633548;86;21046;-63
2021/08/16 02:44:18;;;;;;;18.23;15.85;;;;;;;21.64;58.23;100224.51;1694601;82;21044;-64
2021/08/16 02:46:44;;;;;;;21.95;17.62;;;;;;;21.56;58.30;100215.80;1687821;84;21093;-63
2021/08/16 02:49:10;;;;;;;15.88;14.05;;;;;;;21.52;58.42;100217.41;1688330;83;20996;-63
2021/08/16 02:51:37;;;;;;;18.87;14.15;;;;;;;21.49;58.60;100218.47;1698822;83;20987;-64
2021/08/16 02:54:04;;;;;;;18.87;13.55;;;;;;;21.46;58.68;100210.88;1696902;83;21058;-58
2021/08/16 02:56:31;;;;;;;20.25;16.15;;;;;;;21.45;58.79;100211.95;1706413;81;21110;-62
2021/08/16 02:58:56;;;;;;;;;;;;;;;21.44;58.99;100217.08;1695181;82;21098;-63
2021/08/16 03:01:22;;;;;;;16.60;13.78;;;;;;;21.47;59.00;100224.15;1694133;83;20166;-63
2021/08/16 03:03:48;;;;;;;;;;;;;;;21.51;59.01;100221.22;1682996;84;21573;-62
2021/08/16 03:06:15;;;;;;;17.30;14.63;;;;;;;21.56;58.93;100219.86;1681570;84;20168;-62
2021/08/16 03:08:41;;;;;;;19.15;14.43;;;;;;;21.55;59.02;100222.86;1680939;84;20996;-63
2021/08/16 03:11:09;;;;;;;16.97;14.05;;;;;;;21.59;59.11;100221.25;1678367;84;20995;-63
2021/08/16 03:13:37;;;;;;;18.35;13.60;;;;;;;21.65;59.20;100223.44;1676061;84;21024;-63
2021/08/16 03:16:05;;;;;;;18.32;14.85;;;;;;;21.72;58.98;100219.95;1658192;84;21130;-63
2021/08/16 03:18:33;;;;;;;15.88;13.50;;;;;;;21.84;58.71;100219.72;1654498;85;21055;-63
2021/08/16 03:21:01;;;;;;;17.35;14.03;;;;;;;22.00;58.42;100219.20;1653106;85;21097;-62
2021/08/16 03:23:28;;;;;;;14.50;12.68;;;;;;;22.17;58.17;100217.10;1643047;85;21027;-63
2021/08/16 03:25:55;;;;;;;19.75;14.83;;;;;;;22.41;57.73;100213.89;1653535;85;21039;-62
2021/08/16 03:28:21;;;;;;;21.00;14.90;;;;;;;22.64;56.94;100213.37;1654600;85;21003;-62
2021/08/16 03:30:48;;;;;;;19.60;14.93;;;;;;;22.86;56.30;100205.47;1658080;85;21151;-62
2021/08/16 03:33:16;;;;;;;21.77;14.75;;;;;;;23.09;55.59;100207.66;1650050;85;21191;-63
2021/08/16 03:35:42;;;;;;;15.15;13.38;;;;;;;23.31;54.92;100210.58;1638814;86;20984;-62
2021/08/16 03:38:09;;;;;;;19.35;14.35;;;;;;;23.56;54.56;100208.88;1602449;88;21066;-62
2021/08/16 03:40:35;;;;;;;16.10;13.45;;;;;;;23.83;53.80;100209.33;1647731;86;21529;-62
2021/08/16 03:43:02;;;;;;;20.60;14.13;;;;;;;24.07;52.93;100205.92;1600972;88;21030;-62
2021/08/16 03:45:29;;;;;;;23.38;15.03;;;;;;;24.28;52.39;100201.98;1646194;85;21071;-63
2021/08/16 03:47:55;;;;;;;15.10;13.53;;;;;;;24.54;51.55;100199.63;1642900;86;21049;-64
2021/08/16 03:50:21;;;;;;;17.75;14.75;;;;;;;24.75;50.72;100201.63;1636175;86;21185;-59
2021/08/16 03:52:49;;;;;;;16.60;13.88;;;;;;;24.95;50.42;100197.36;1602774;88;21056;-58
2021/08/16 03:55:15;;;;;;;18.40;13.90;;;;;;;25.21;49.85;100197.91;1636553;85;21002;-60
2021/08/16 03:57:43;;;;;;;17.37;15.58;;;;;;;25.42;49.09;100197.14;1618342;87;21085;-59
2021/08/16 04:00:13;;;;;;;19.60;15.72;;;;;;;25.62;48.68;100194.73;1587380;87;21067;-58
2021/08/16 04:02:42;;;;;;;17.40;14.30;;;;;;;25.86;48.35;100197.15;1641773;86;21603;-58
2021/08/16 04:05:09;;;;;;;21.07;13.48;;;;;;;26.18;47.55;100195.91;1693010;83;21061;-59
2021/08/16 04:07:35;;;;;;;18.90;14.15;;;;;;;26.53;46.97;100193.70;1682356;84;21080;-59
2021/08/16 04:10:03;;;;;;;18.75;13.53;;;;;;;26.86;45.62;100199.20;1684361;83;21013;-59
2021/08/16 04:12:31;;;;;;;13.85;12.23;;;;;;;27.00;45.48;100193.75;1702249;82;21061;-59
2021/08/16 04:14:58;;;;;;;14.75;12.78;;;;;;;27.28;44.96;100192.44;1708297;82;21117;-59
2021/08/16 04:17:24;;;;;;;15.80;13.00;;;;;;;27.64;44.40;100192.51;1707712;82;21074;-58
2021/08/16 04:19:51;;;;;;;15.05;12.30;;;;;;;28.03;43.62;100198.53;1694419;82;21541;-58
2021/08/16 04:22:18;;;;;;;16.77;12.88;;;;;;;28.34;42.38;100198.07;1696018;82;21205;-59
2021/08/16 04:24:45;;;;;;;18.27;11.97;;;;;;;28.61;41.99;100202.39;1680533;84;21138;-59
2021/08/16 04:27:11;;;;;;;14.13;12.05;;;;;;;28.83;41.48;100204.31;1672807;84;21030;-57
2021/08/16 04:29:37;;;;;;;16.97;12.13;;;;;;;28.99;40.65;100203.33;1662693;84;21062;-57
2021/08/16 04:32:06;;;;;;;22.07;11.73;;;;;;;29.06;40.82;100196.27;1675657;84;21110;-59
2021/08/16 04:34:32;;;;;;;17.73;12.07;;;;;;;29.23;40.40;100196.13;1690568;84;21022;-59
2021/08/16 04:37:00;;;;;;;16.75;11.65;;;;;;;29.48;39.95;100200.10;1688617;84;21050;-57
2021/08/16 04:39:27;;;;;;;15.83;11.12;;;;;;;29.70;39.28;100195.88;1695173;83;21611;-58
2021/08/16 04:41:53;;;;;;;15.05;11.12;;;;;;;29.91;39.07;100198.58;1690202;83;21117;-59
2021/08/16 04:44:19;;;;;;;13.45;11.15;;;;;;;30.11;38.27;100195.20;1694671;83;21518;-59
2021/08/16 04:46:48;;;;;;;15.65;10.75;;;;;;;30.27;38.00;100195.50;1674637;84;21038;-59
2021/08/16 04:49:14;;;;;;;15.48;10.95;;;;;;;30.46;37.77;100193.27;1685102;83;20973;-59
2021/08/16 04:51:43;;;;;;;14.75;11.12;;;;;;;30.54;37.09;100193.59;1699766;83;21079;-60
2021/08/16 04:54:09;;;;;;;16.07;11.00;;;;;;;30.58;37.04;100195.92;1705868;83;21714;-59
2021/08/16 04:56:35;;;;;;;12.60;11.00;;;;;;;30.61;37.20;100188.38;1701933;81;21047;-58
2021/08/16 04:59:03;;;;;;;13.72;10.55;;;;;;;30.72;37.14;100197.89;1698126;83;21062;-59
2021/08/16 05:01:29;;;;;;;11.35;10.13;;;;;;;30.93;36.60;100191.71;1702763;83;21058;-59
2021/08/16 05:03:56;;;;;;;18.42;11.08;;;;;;;31.08;36.57;100190.36;1702525;83;21112;-60
2021/08/16 05:06:29;;;;;;;18.00;9.28;;;;;;;31.17;36.09;100198.82;1705960;83;20987;-60
2021/08/16 05:08:50;;;;;;;13.43;10.15;;;;;;;31.22;35.90;100190.38;1702676;83;21060;-60
2021/08/16 05:11:18;;;;;;;16.95;9.65;;;;;;;31.34;35.94;100194.38;1702089;82;21066;-58
2021/08/16 05:13:44;;;;;;;12.45;9.70;;;;;;;31.52;35.74;100196.51;1686255;84;21028;-59
2021/08/16 05:16:10;;;;;;;12.43;9.80;;;;;;;31.66;35.52;100190.73;1691592;83;21070;-59
2021/08/16 05:18:38;;;;;;;13.30;10.48;;;;;;;31.57;35.36;100164.06;1685178;83;21573;-59
2021/08/16 05:21:06;;;;;;;14.03;10.20;;;;;;;31.79;35.14;100193.81;1688489;83;21012;-59
2021/08/16 05:23:33;;;;;;;15.90;10.82;;;;;;;31.74;35.37;100198.12;1688994;83;21089;-59
2021/08/16 05:26:00;;;;;;;12.60;10.40;;;;;;;31.80;35.24;100194.06;1696790;83;21029;-58
2021/08/16 05:28:29;;;;;;;11.65;9.78;;;;;;;31.94;35.10;100189.07;1698892;83;21135;-60
2021/08/16 05:30:56;;;;;;;15.63;10.40;;;;;;;32.00;35.18;100190.50;1687565;83;21040;-59
2021/08/16 05:33:23;;;;;;;14.60;9.28;;;;;;;32.06;34.78;100184.80;1700808;82;21086;-56
2021/08/16 05:35:49;;;;;;;14.68;10.53;;;;;;;32.06;34.66;100190.31;1696598;83;20969;-56
2021/08/16 05:38:15;;;;;;;14.60;10.35;;;;;;;31.90;34.79;100196.41;1683738;83;21023;-56
2021/08/16 05:40:42;;;;;;;23.30;10.48;;;;;;;31.87;35.25;100193.51;1699942;83;21050;-55
2021/08/16 05:43:08;;;;;;;16.10;9.65;;;;;;;31.94;35.62;100194.58;1680569;83;21090;-57
2021/08/16 05:45:34;;;;;;;14.03;9.63;;;;;;;32.08;35.07;100193.53;1666517;83;21577;-56
2021/08/16 05:48:00;;;;;;;15.00;8.73;;;;;;;32.05;34.65;100205.25;1666191;84;21164;-57
2021/08/16 05:50:27;;;;;;;15.32;8.85;;;;;;;31.83;34.95;100201.64;1649439;85;21643;-56
2021/08/16 05:52:53;;;;;;;13.18;8.65;;;;;;;31.68;35.77;100206.36;1663042;85;21015;-56
2021/08/16 05:55:20;;;;;;;13.53;8.48;;;;;;;31.70;35.14;100213.72;1655459;83;21568;-57
2021/08/16 05:57:47;;;;;;;10.93;8.78;;;;;;;31.60;35.42;100209.41;1646195;86;20962;-57
2021/08/16 06:00:15;;;;;;;21.05;9.23;;;;;;;31.62;35.27;100207.13;1644003;86;20970;-56
2021/08/16 06:02:41;;;;;;;13.90;8.50;;;;;;;31.68;35.27;100204.41;1675838;84;21469;-56
2021/08/16 06:05:08;;;;;;;19.48;9.05;;;;;;;31.70;35.02;100204.08;1679576;84;21517;-58
2021/08/16 06:07:34;;;;;;;9.63;8.30;;;;;;;31.56;35.23;100202.96;1681124;84;21028;-57
2021/08/16 06:10:01;;;;;;;12.63;8.35;;;;;;;31.52;35.57;100204.19;1685217;84;20961;-58
2021/08/16 06:12:27;;;;;;;13.30;8.70;;;;;;;31.67;35.36;100200.05;1685095;83;21014;-58
2021/08/16 06:14:55;;;;;;;25.10;9.38;;;;;;;31.78;35.06;100194.39;1683473;84;21624;-58
2021/08/16 06:17:21;;;;;;;13.13;8.55;;;;;;;31.85;34.83;100192.46;1680066;84;21113;-57
2021/08/16 06:19:47;;;;;;;12.80;9.75;;;;;;;31.89;35.07;100182.95;1681159;84;21111;-57
2021/08/16 06:22:13;;;;;;;15.45;8.43;;;;;;;31.97;34.78;100182.89;1677524;84;21041;-58
2021/08/16 06:24:39;;;;;;;14.53;8.95;;;;;;;32.04;34.91;100178.81;1682030;84;21145;-57
2021/08/16 06:27:06;;;;;;;16.48;8.13;;;;;;;32.09;34.60;100184.13;1673581;84;21099;-60
2021/08/16 06:29:33;;;;;;;18.00;8.15;;;;;;;32.11;34.69;100190.91;1681379;84;21268;-58
2021/08/16 06:32:00;;;;;;;14.23;7.12;;;;;;;32.22;34.13;100183.63;1680547;84;22048;-59
2021/08/16 06:34:26;;;;;;;15.03;7.35;;;;;;;32.26;34.18;100191.45;1695234;83;21127;-58
2021/08/16 06:36:55;;;;;;;12.10;6.95;;;;;;;32.22;34.63;100190.52;1705048;84;21106;-57
2021/08/16 06:39:24;;;;;;;26.57;9.13;;;;;;;32.01;34.59;100189.92;1715561;82;20922;-57
2021/08/16 06:41:54;;;;;;;14.07;8.40;;;;;;;32.00;34.69;100194.64;1728210;82;21075;-57
2021/08/16 06:44:23;;;;;;;11.93;8.15;;;;;;;32.01;34.82;100197.61;1702035;83;21147;-57
2021/08/16 06:46:50;;;;;;;15.28;8.93;;;;;;;32.06;34.84;100199.95;1711748;82;21075;-58
2021/08/16 06:49:16;;;;;;;12.07;7.67;;;;;;;32.19;34.72;100198.32;1713532;82;21556;-59
2021/08/16 06:51:42;;;;;;;11.08;6.78;;;;;;;32.20;34.43;100202.67;1710853;82;21002;-58
2021/08/16 06:54:08;;;;;;;14.85;6.62;;;;;;;32.04;34.55;100170.55;1709855;82;21090;-59
2021/08/16 06:56:36;;;;;;;17.32;8.23;;;;;;;32.22;34.66;100196.83;1673803;82;21023;-58
2021/08/16 06:59:03;;;;;;;14.07;8.38;;;;;;;32.23;34.90;100192.94;1610771;87;21088;-58
2021/08/16 07:01:30;;;;;;;10.23;6.50;;;;;;;32.25;34.64;100193.41;1662917;85;21021;-57
2021/08/16 07:03:57;;;;;;;17.77;6.75;;;;;;;32.23;34.74;100197.08;1658697;83;21080;-58
2021/08/16 07:06:25;;;;;;;10.23;6.15;;;;;;;32.22;34.20;100192.69;1653168;85;21086;-57
2021/08/16 07:08:52;;;;;;;7.92;5.80;;;;;;;32.23;34.30;100194.31;1672499;83;21050;-58
2021/08/16 07:11:19;;;;;;;16.07;6.87;;;;;;;32.30;34.21;100194.55;1684979;83;21599;-58
2021/08/16 07:13:45;;;;;;;7.62;6.15;;;;;;;32.33;33.90;100187.57;1706721;83;21066;-57
2021/08/16 07:16:12;;;;;;;6.03;4.80;;;;;;;32.10;34.46;100192.07;1708002;83;21019;-58
2021/08/16 07:18:40;;;;;;;14.20;6.05;;;;;;;31.80;34.52;100192.68;1720881;82;21149;-57
2021/08/16 07:21:07;;;;;;;5.87;5.22;;;;;;;31.57;34.65;100194.37;1708331;82;20986;-57
2021/08/16 07:23:37;;;;;;;8.18;5.28;;;;;;;31.31;34.81;100199.19;1721974;82;21080;-58
2021/08/16 07:26:06;;;;;;;9.75;4.80;;;;;;;31.21;34.83;100194.84;1723364;82;21477;-60
2021/08/16 07:28:35;;;;;;;8.93;4.50;;;;;;;31.11;35.08;100196.02;1723585;82;21482;-58
2021/08/16 07:31:04;;;;;;;12.50;6.42;;;;;;;31.05;35.31;100195.39;1723711;82;21154;-59
2021/08/16 07:33:32;;;;;;;9.45;6.03;;;;;;;30.93;35.67;100205.47;1727620;82;21045;-58
2021/08/16 07:35:58;;;;;;;5.58;4.60;;;;;;;30.83;36.14;100198.35;1720061;82;21018;-57
2021/08/16 07:38:23;;;;;;;10.38;4.58;;;;;;;30.81;35.54;100202.80;1721399;82;21014;-59
2021/08/16 07:40:50;;;;;;;8.08;4.65;;;;;;;30.69;35.68;100199.94;1709448;82;20978;-59
2021/08/16 07:43:18;;;;;;;5.60;3.92;;;;;;;30.35;36.13;100205.73;1719304;82;20956;-58
2021/08/16 07:45:44;;;;;;;5.45;3.77;;;;;;;30.08;36.41;100200.78;1711991;82;21157;-58
2021/08/16 07:48:11;;;;;;;3.98;3.70;;;;;;;29.91;36.73;100203.50;1670720;84;21047;-59
2021/08/16 07:50:38;;;;;;;8.75;4.10;;;;;;;29.84;36.83;100199.08;1713540;82;21116;-57
2021/08/16 07:53:07;;;;;;;4.15;3.75;;;;;;;29.88;36.68;100211.03;1708499;82;21018;-58
2021/08/16 07:55:34;;;;;;;8.90;3.83;;;;;;;29.81;36.77;100203.25;1715787;82;21055;-58
2021/08/16 07:58:03;;;;;;;8.88;4.55;;;;;;;29.74;36.93;100210.34;1710103;82;21022;-59
2021/08/16 08:00:29;;;;;;;4.53;3.95;;;;;;;29.74;36.84;100210.34;1681397;84;21087;-58
2021/08/16 08:02:55;;;;;;;5.65;4.97;;;;;;;29.75;36.42;100213.36;1704998;82;21106;-59
2021/08/16 08:05:24;;;;;;;5.72;3.95;;;;;;;29.73;36.76;100211.47;1704052;82;21988;-58
2021/08/16 08:07:51;;;;;;;7.60;4.08;;;;;;;29.66;36.82;100216.84;1705581;82;21029;-59
2021/08/16 08:10:20;;;;;;;4.92;4.00;;;;;;;29.60;37.17;100214.58;1722796;82;21010;-58
2021/08/16 08:12:48;;;;;;;3.83;2.95;;;;;;;29.53;36.89;100216.41;1716821;82;21001;-57
2021/08/16 08:15:16;;;;;;;8.70;4.00;;;;;;;29.49;36.79;100210.74;1710556;82;21120;-58
2021/08/16 08:17:43;;;;;;;5.72;3.95;;;;;;;29.53;37.24;100210.12;1716921;82;21093;-58
2021/08/16 08:20:11;;;;;;;5.28;4.15;;;;;;;29.60;36.97;100208.52;1704794;82;21670;-58
2021/08/16 08:22:37;;;;;;;6.42;4.85;;;;;;;29.63;36.96;100200.19;1707363;82;21121;-57
2021/08/16 08:27:29;;;;;;;;;;;;;;;29.76;36.74;100202.59;1807432;78;22546;-58
2021/08/16 08:29:55;;;;;;;4.28;3.72;;;;;;;29.74;36.46;100208.98;1778291;80;20092;-57
2021/08/16 08:32:21;;;;;;;3.52;3.17;;;;;;;29.63;36.35;100194.70;1776827;80;21114;-58
2021/08/16 08:34:48;;;;;;;5.72;3.87;;;;;;;29.55;36.47;100199.62;1741413;80;21040;-59
2021/08/16 08:37:15;;;;;;;5.55;4.50;;;;;;;29.53;36.93;100206.80;1682963;84;21007;-58
2021/08/16 08:39:45;;;;;;;6.92;4.28;;;;;;;29.57;36.75;100205.59;1663442;84;21104;-59
2021/08/16 08:42:14;;;;;;;7.25;3.92;;;;;;;29.60;36.82;100196.73;1664273;84;21026;-59
2021/08/16 08:44:43;;;;;;;6.10;4.25;;;;;;;29.66;36.84;100200.94;1667160;85;21111;-58
2021/08/16 08:47:12;;;;;;;5.80;3.62;;;;;;;29.77;35.66;100201.48;1652970;87;21006;-59
2021/08/16 08:49:41;;;;;;;8.23;4.37;;;;;;;29.89;35.73;100199.73;1667269;84;21016;-60
2021/08/16 08:52:09;;;;;;;8.45;4.00;;;;;;;29.99;35.30;100201.34;1659106;85;21534;-60
2021/08/16 08:54:36;;;;;;;4.20;3.92;;;;;;;30.01;35.57;100204.58;1672717;85;21501;-58
2021/08/16 08:57:05;;;;;;;4.33;3.95;;;;;;;30.00;36.31;100205.69;1633540;85;21599;-57
2021/08/16 08:59:31;;;;;;;5.28;4.40;;;;;;;30.02;36.27;100201.25;1656933;85;21157;-58
2021/08/16 09:01:59;;;;;;;4.58;4.20;;;;;;;29.99;36.29;100201.34;1702118;82;21120;-59
2021/08/16 09:04:26;;;;;;;4.37;4.08;;;;;;;30.00;36.13;100200.77;1716130;82;21001;-58
2021/08/16 09:06:52;;;;;;;7.75;4.25;;;;;;;30.04;36.27;100202.53;1714536;82;21553;-59
2021/08/16 09:09:20;;;;;;;4.28;3.90;;;;;;;30.01;35.84;100193.58;1710403;82;21720;-58
2021/08/16 09:11:51;;;;;;;7.15;3.85;;;;;;;30.01;35.97;100196.33;1716361;83;21041;-57
2021/08/16 09:14:19;;;;;;;4.65;4.25;;;;;;;30.05;36.18;100199.25;1718163;82;21195;-58
2021/08/16 09:16:49;;;;;;;5.75;3.77;;;;;;;30.02;36.01;100195.19;1716584;82;21075;-58
2021/08/16 09:19:24;;;;;;;3.90;3.60;;;;;;;30.01;36.05;100190.84;1715931;82;21021;-57
2021/08/16 09:21:59;;;;;;;5.35;4.10;;;;;;;30.08;36.02;100184.84;1713221;82;21057;-58
2021/08/16 09:24:25;;;;;;;5.90;3.85;;;;;;;30.20;35.75;100186.39;1713000;82;21096;-60
2021/08/16 09:26:52;;;;;;;9.43;4.53;;;;;;;30.40;35.45;100182.75;1704002;83;21041;-58
2021/08/16 09:29:22;;;;;;;4.50;4.08;;;;;;;30.54;35.20;100180.63;1705765;83;21085;-58
2021/08/16 09:32:04;;;;;;;4.75;3.22;;;;;;;30.61;34.90;100170.48;1706100;83;21033;-57
2021/08/16 09:34:37;;;;;;;3.80;3.47;;;;;;;30.68;34.88;100179.63;1676022;83;21477;-58
2021/08/16 09:37:22;;;;;;;5.22;4.10;;;;;;;30.69;34.59;100173.80;1665279;84;21034;-59
2021/08/16 09:40:09;;;;;;;6.90;3.80;;;;;;;30.65;34.62;100170.09;1668328;84;21034;-60
2021/08/16 09:42:49;;;;;;;8.00;4.42;;;;;;;30.56;35.26;100165.98;1675132;85;21160;-60
2021/08/16 09:45:29;;;;;;;4.47;4.08;;;;;;;30.57;35.39;100165.41;1684113;83;21502;-58
2021/08/16 09:47:59;;;;;;;5.30;4.30;;;;;;;30.64;34.94;100151.39;1683265;84;21601;-58
2021/08/16 09:50:42;;;;;;;4.78;4.28;;;;;;;30.75;34.23;100149.10;1716598;83;21077;-58
2021/08/16 09:53:16;;;;;;;4.62;4.25;;;;;;;30.79;34.34;100151.43;1679772;83;21146;-58
2021/08/16 09:55:46;;;;;;;5.55;5.00;;;;;;;30.80;34.52;100144.80;1695191;83;21144;-59
2021/08/16 09:58:15;;;;;;;4.42;3.40;;;;;;;30.82;33.71;100143.91;1696636;84;21054;-58
2021/08/16 10:00:48;;;;;;;5.05;4.55;;;;;;;30.82;34.09;100135.65;1695981;83;21085;-58
2021/08/16 10:03:14;;;;;;;6.83;4.28;;;;;;;30.77;34.40;100140.52;1690967;83;21065;-60
2021/08/16 10:05:45;;;;;;;8.45;4.10;;;;;;;30.79;34.51;100139.05;1694924;83;21022;-58
2021/08/16 10:08:22;;;;;;;6.03;3.80;;;;;;;30.82;34.20;100130.72;1695707;83;21021;-57
2021/08/16 10:10:52;;;;;;;4.08;3.77;;;;;;;30.80;34.30;100131.63;1692868;83;21078;-60
2021/08/16 10:13:23;;;;;;;5.75;2.98;;;;;;;30.78;34.10;100125.61;1679605;84;21062;-59
2021/08/16 10:15:59;;;;;;;4.75;3.67;;;;;;;30.81;34.19;100124.97;1666328;84;21119;-59
2021/08/16 10:18:31;;;;;;;3.35;2.98;;;;;;;30.88;33.81;100123.09;1671451;84;21038;-58
2021/08/16 10:20:58;;;;;;;8.05;3.42;;;;;;;30.91;33.73;100132.08;1676370;84;21144;-60
2021/08/16 10:23:26;;;;;;;4.78;3.42;;;;;;;30.88;33.79;100119.77;1676166;83;21613;-59
2021/08/16 10:25:55;;;;;;;5.08;3.17;;;;;;;30.91;33.85;100123.81;1682020;84;21113;-60
2021/08/16 10:28:33;;;;;;;9.93;3.92;;;;;;;30.92;33.82;100120.73;1675100;84;21074;-58
2021/08/16 10:31:01;;;;;;;;;;;;;;;30.94;33.82;100128.67;1678262;84;21062;-59
2021/08/16 10:33:29;;;;;;;5.53;3.70;;;;;;;30.90;33.78;100123.56;1683619;84;20136;-58
2021/08/16 10:35:57;;;;;;;5.55;3.55;;;;;;;30.74;33.89;100136.50;1672366;84;20991;-58
2021/08/16 10:38:25;;;;;;;5.28;3.67;;;;;;;30.65;33.94;100120.02;1677461;84;21073;-59
2021/08/16 10:40:56;;;;;;;6.75;3.60;;;;;;;30.66;34.16;100112.56;1671762;84;21196;-59
2021/08/16 10:43:26;;;;;;;3.75;3.42;;;;;;;30.67;34.20;100118.31;1687520;84;21047;-57
2021/08/16 10:45:55;;;;;;;6.10;3.50;;;;;;;30.61;33.92;100109.98;1694909;83;21089;-58
2021/08/16 10:48:32;;;;;;;5.87;3.77;;;;;;;30.61;33.99;100116.31;1696431;83;21128;-58
2021/08/16 10:51:09;;;;;;;5.10;3.55;;;;;;;30.66;34.00;100108.44;1693823;83;21032;-58
2021/08/16 10:53:50;;;;;;;5.10;3.12;;;;;;;30.74;33.54;100114.49;1694559;83;21494;-58
2021/08/16 10:56:19;;;;;;;5.37;3.05;;;;;;;30.74;33.52;100109.53;1682224;83;21033;-58
2021/08/16 10:58:46;;;;;;;4.08;2.85;;;;;;;30.76;33.73;100097.63;1656186;85;21104;-59
2021/08/16 11:01:32;;;;;;;6.62;3.10;;;;;;;30.79;33.69;100100.53;1657343;85;21072;-58
2021/08/16 11:04:03;;;;;;;3.70;3.15;;;;;;;30.84;33.54;100096.23;1648317;85;21042;-61
2021/08/16 11:06:31;;;;;;;3.62;3.10;;;;;;;30.89;33.19;100098.55;1642652;85;21063;-58
2021/08/16 11:09:01;;;;;;;2.85;2.65;;;;;;;30.97;32.59;100094.42;1646870;85;21130;-59
2021/08/16 11:11:33;;;;;;;3.45;3.05;;;;;;;31.01;32.13;100095.37;1650988;85;21034;-58
2021/08/16 11:14:11;;;;;;;6.50;2.95;;;;;;;31.04;32.20;100091.13;1668208;84;21197;-57
2021/08/16 11:16:50;;;;;;;4.03;3.00;;;;;;;31.05;32.02;100092.76;1660668;84;21027;-58
2021/08/16 11:19:17;;;;;;;3.40;3.15;;;;;;;31.07;32.02;100091.05;1643406;86;21069;-58
2021/08/16 11:22:02;;;;;;;3.33;2.95;;;;;;;31.12;31.98;100083.96;1663032;84;21047;-59
2021/08/16 11:24:35;;;;;;;4.28;2.02;;;;;;;31.15;31.98;100085.48;1673195;84;21103;-60
2021/08/16 11:27:05;;;;;;;4.05;2.02;;;;;;;31.21;32.06;100086.09;1662402;84;21058;-58
2021/08/16 11:29:32;;;;;;;2.62;2.30;;;;;;;31.27;31.41;100086.70;1632552;86;21071;-58
2021/08/16 11:32:03;;;;;;;2.92;2.60;;;;;;;31.34;31.08;100088.36;1612944;87;21133;-58
2021/08/16 11:34:50;;;;;;;3.05;2.70;;;;;;;31.34;30.79;100082.86;1667522;85;21127;-58
2021/08/16 11:37:18;;;;;;;2.90;2.62;;;;;;;31.34;30.95;100081.48;1631958;86;21105;-58
2021/08/16 11:39:48;;;;;;;3.25;2.30;;;;;;;31.31;31.02;100080.80;1655819;85;21154;-58
2021/08/16 11:42:19;;;;;;;5.65;2.87;;;;;;;31.30;31.14;100076.41;1638478;86;21000;-58
2021/08/16 11:45:02;;;;;;;2.92;2.35;;;;;;;31.33;30.91;100070.25;1633381;86;21061;-58
2021/08/16 11:47:37;;;;;;;2.92;2.17;;;;;;;31.37;30.45;100076.69;1652347;85;21043;-58
2021/08/16 11:50:11;;;;;;;3.92;2.10;;;;;;;31.36;30.15;100069.56;1641807;86;21101;-58
2021/08/16 11:52:38;;;;;;;2.58;2.45;;;;;;;31.30;30.05;100065.40;1641015;86;21518;-58
2021/08/16 11:55:07;;;;;;;4.92;2.58;;;;;;;31.22;30.43;100067.07;1641769;86;21026;-56
2021/08/16 11:57:34;;;;;;;3.55;2.40;;;;;;;31.22;30.70;100065.12;1673300;84;21064;-58
2021/08/16 12:00:01;;;;;;;3.12;2.20;;;;;;;31.04;30.64;100033.33;1665331;85;21035;-60
2021/08/16 12:02:37;;;;;;;5.28;3.17;;;;;;;31.20;30.60;100055.59;1666281;84;21066;-60
2021/08/16 12:05:05;;;;;;;5.67;3.10;;;;;;;31.17;30.61;100055.67;1659783;84;21140;-59
2021/08/16 12:07:31;;;;;;;3.40;2.42;;;;;;;31.18;30.82;100052.37;1664087;84;21039;-59
2021/08/16 12:09:59;;;;;;;4.03;2.50;;;;;;;31.17;30.72;100050.16;1661603;84;21032;-59